createdAt,value
2019-05-19T00:01:04.189Z,99910.23
2019-05-19T00:03:53.168Z,99923.71
2019-05-19T00:06:42.026Z,99919.04
2019-05-19T00:09:30.877Z,99916.13
2019-05-19T00:12:19.823Z,99905.86
2019-05-19T00:15:08.908Z,99906.82
2019-05-19T00:17:57.831Z,99907.34
2019-05-19T00:20:46.659Z,99909.16
2019-05-19T00:23:35.509Z,99900.30
2019-05-19T00:26:24.341Z,99902.52
2019-05-19T00:29:06.319Z,99900.67
2019-05-19T00:31:35.841Z,99894.47
2019-05-19T00:34:24.707Z,99891.55
2019-05-19T00:37:13.572Z,99894.60
2019-05-19T00:40:02.411Z,99889.89
2019-05-19T00:42:51.268Z,99885.53
2019-05-19T00:45:40.184Z,99882.18
2019-05-19T00:48:29.129Z,99877.49
2019-05-19T00:51:18.033Z,99877.55
2019-05-19T00:54:06.944Z,99880.63
2019-05-19T01:00:24.139Z,99877.27
2019-05-19T01:03:12.990Z,99869.53
2019-05-19T01:06:01.882Z,99875.14
2019-05-19T01:08:50.720Z,99877.80
2019-05-19T01:11:39.656Z,99876.08
2019-05-19T01:14:28.489Z,99861.78
2019-05-19T01:17:17.420Z,99860.98
2019-05-19T01:20:07.096Z,99868.77
2019-05-19T01:22:55.965Z,99864.91
2019-05-19T01:25:44.849Z,99864.91
2019-05-19T01:28:33.700Z,99867.09
2019-05-19T01:31:15.174Z,99863.26
2019-05-19T01:37:19.140Z,99854.25
2019-05-19T01:40:08.625Z,99860.83
2019-05-19T01:42:57.845Z,99856.91
2019-05-19T01:45:46.744Z,99855.22
2019-05-19T01:48:35.667Z,99856.50
2019-05-19T01:51:24.509Z,99855.64
2019-05-19T01:54:16.646Z,99850.02
2019-05-19T01:57:03.921Z,99848.77
2019-05-19T01:59:52.850Z,99843.55
2019-05-19T02:02:41.754Z,99844.47
2019-05-19T02:05:30.623Z,99843.19
2019-05-19T02:08:19.466Z,99839.70
2019-05-19T02:14:03.002Z,99837.98
2019-05-19T02:16:51.866Z,99833.20
2019-05-19T02:19:40.707Z,99838.83
2019-05-19T02:22:29.651Z,99841.03
2019-05-19T02:28:33.241Z,99843.00
2019-05-19T02:31:15.169Z,99843.27
2019-05-19T02:34:04.026Z,99854.95
2019-05-19T02:36:52.927Z,99851.91
2019-05-19T02:39:41.796Z,99850.61
2019-05-19T02:46:19.849Z,99845.70
2019-05-19T02:55:34.228Z,99841.41
2019-05-19T03:02:10.410Z,99840.31
2019-05-19T03:04:59.323Z,99839.86
2019-05-19T03:07:48.260Z,99836.85
2019-05-19T03:10:37.123Z,99843.83
2019-05-19T03:13:26.062Z,99844.33
2019-05-19T03:16:14.877Z,99850.00
2019-05-19T03:19:03.812Z,99837.84
2019-05-19T03:21:52.709Z,99838.33
2019-05-19T03:24:41.562Z,99831.41
2019-05-19T03:27:30.411Z,99827.97
2019-05-19T03:30:31.742Z,99824.91
2019-05-19T03:33:39.637Z,99824.53
2019-05-19T03:36:28.464Z,99820.17
2019-05-19T03:39:17.313Z,99818.76
2019-05-19T03:42:10.222Z,99810.48
2019-05-19T03:44:56.807Z,99813.09
2019-05-19T03:47:45.746Z,99821.41
2019-05-19T03:50:34.577Z,99814.49
2019-05-19T03:53:23.415Z,99817.53
2019-05-19T03:56:12.491Z,99811.03
2019-05-19T03:59:01.339Z,99812.36
2019-05-19T04:01:50.187Z,99817.11
2019-05-19T04:04:39.109Z,99814.95
2019-05-19T04:07:27.938Z,99818.85
2019-05-19T04:10:16.967Z,99825.81
2019-05-19T04:13:05.828Z,99822.33
2019-05-19T04:15:54.663Z,99820.59
2019-05-19T04:18:43.520Z,99821.03
2019-05-19T04:21:47.675Z,99822.75
2019-05-19T04:24:22.928Z,99819.30
2019-05-19T04:27:11.848Z,99816.23
2019-05-19T04:30:00.700Z,99813.62
2019-05-19T04:32:42.238Z,99815.33
2019-05-19T04:35:31.242Z,99816.61
2019-05-19T04:38:20.174Z,99811.00
2019-05-19T04:41:09.167Z,99816.14
2019-05-19T04:43:58.027Z,99816.13
2019-05-19T04:46:46.947Z,99817.01
2019-05-19T04:49:35.766Z,99822.18
2019-05-19T04:52:24.694Z,99824.72
2019-05-19T04:55:13.584Z,99825.59
2019-05-19T04:58:02.511Z,99826.42
2019-05-19T05:00:51.351Z,99825.88
2019-05-19T05:03:40.238Z,99833.20
2019-05-19T05:06:29.074Z,99829.16
2019-05-19T05:09:17.931Z,99828.14
2019-05-19T05:12:06.879Z,99833.25
2019-05-19T05:14:55.720Z,99832.98
2019-05-19T05:17:44.679Z,99826.67
2019-05-19T05:20:33.611Z,99832.16
2019-05-19T05:23:22.450Z,99836.62
2019-05-19T05:26:11.297Z,99839.65
2019-05-19T05:29:00.125Z,99832.36
2019-05-19T05:31:41.502Z,99828.56
2019-05-19T05:34:30.366Z,99831.66
2019-05-19T05:37:19.247Z,99826.84
2019-05-19T05:40:08.479Z,99830.25
2019-05-19T05:42:57.329Z,99824.63
2019-05-19T05:45:46.157Z,99819.09
2019-05-19T05:48:35.002Z,99817.19
2019-05-19T05:51:23.837Z,99822.04
2019-05-19T05:54:12.769Z,99830.91
2019-05-19T05:57:01.622Z,99836.28
2019-05-19T05:59:50.487Z,99838.67
2019-05-19T06:02:39.314Z,99842.97
2019-05-19T06:05:28.192Z,99848.83
2019-05-19T06:08:17.021Z,99850.43
2019-05-19T06:11:05.899Z,99852.55
2019-05-19T06:13:54.727Z,99856.03
2019-05-19T06:16:43.592Z,99863.94
2019-05-19T06:19:32.452Z,99864.58
2019-05-19T06:22:21.292Z,99866.49
2019-05-19T06:28:25.459Z,99869.19
2019-05-19T06:31:06.916Z,99869.63
2019-05-19T06:33:55.782Z,99874.88
2019-05-19T06:36:44.610Z,99874.55
2019-05-19T06:39:33.466Z,99875.73
2019-05-19T06:42:22.315Z,99880.50
2019-05-19T06:48:25.698Z,99891.27
2019-05-19T06:51:14.601Z,99896.53
2019-05-19T06:54:03.461Z,99892.58
2019-05-19T06:56:52.454Z,99894.73
2019-05-19T06:59:41.302Z,99892.25
2019-05-19T07:02:30.172Z,99899.39
2019-05-19T07:05:19.135Z,99904.57
2019-05-19T07:08:08.142Z,99904.69
2019-05-19T07:10:56.995Z,99911.67
2019-05-19T07:13:45.936Z,99908.28
2019-05-19T07:16:34.796Z,99903.78
2019-05-19T07:19:23.752Z,99911.53
2019-05-19T07:22:12.623Z,99898.07
2019-05-19T07:25:01.584Z,99899.27
2019-05-19T07:27:50.463Z,99904.77
2019-05-19T07:30:39.476Z,99907.02
2019-05-19T07:33:20.869Z,99906.02
2019-05-19T07:36:09.744Z,99896.16
2019-05-19T07:38:58.590Z,99899.09
2019-05-19T07:41:47.435Z,99894.84
2019-05-19T07:44:36.329Z,99900.77
2019-05-19T07:47:25.247Z,99898.62
2019-05-19T07:50:14.048Z,99895.20
2019-05-19T07:53:02.915Z,99900.73
2019-05-19T07:55:51.820Z,99898.58
2019-05-19T07:58:40.772Z,99894.23
2019-05-19T08:01:29.671Z,99894.08
2019-05-19T08:04:18.532Z,99893.95
2019-05-19T08:06:48.117Z,99901.02
2019-05-19T08:09:36.958Z,99895.44
2019-05-19T08:12:25.878Z,99892.80
2019-05-19T08:15:14.702Z,99893.52
2019-05-19T08:18:03.615Z,99892.44
2019-05-19T08:20:52.520Z,99896.80
2019-05-19T08:23:41.390Z,99897.03
2019-05-19T08:26:30.315Z,99890.22
2019-05-19T08:29:19.164Z,99893.38
2019-05-19T08:32:01.412Z,99895.70
2019-05-19T08:34:50.277Z,99891.86
2019-05-19T08:37:39.124Z,99889.23
2019-05-19T08:40:27.949Z,99891.94
2019-05-19T08:43:16.790Z,99887.23
2019-05-19T08:46:05.630Z,99893.33
2019-05-19T08:48:54.548Z,99894.52
2019-05-19T08:51:43.374Z,99890.78
2019-05-19T08:54:32.229Z,99886.13
2019-05-19T08:57:21.057Z,99888.23
2019-05-19T09:00:10.217Z,99880.72
2019-05-19T09:02:59.030Z,99882.83
2019-05-19T09:05:48.082Z,99879.81
2019-05-19T09:08:36.878Z,99882.98
2019-05-19T09:11:25.738Z,99879.98
2019-05-19T09:14:14.577Z,99868.63
2019-05-19T09:16:44.092Z,99870.30
2019-05-19T09:19:32.987Z,99874.97
2019-05-19T09:22:21.852Z,99872.30
2019-05-19T09:28:25.244Z,99869.99
2019-05-19T09:31:14.121Z,99866.48
2019-05-19T09:33:55.506Z,99864.23
2019-05-19T09:36:44.354Z,99865.78
2019-05-19T09:39:33.211Z,99855.81
2019-05-19T09:42:22.050Z,99854.56
2019-05-19T09:48:39.326Z,99853.11
2019-05-19T09:51:28.180Z,99849.23
2019-05-19T09:54:17.026Z,99846.42
2019-05-19T09:57:06.148Z,99844.36
2019-05-19T09:59:55.020Z,99839.02
2019-05-19T10:02:43.856Z,99838.30
2019-05-19T10:05:32.699Z,99832.75
2019-05-19T10:08:41.434Z,99837.08
2019-05-19T10:12:08.964Z,99834.70
2019-05-19T10:14:57.917Z,99834.92
2019-05-19T10:17:46.804Z,99833.92
2019-05-19T10:20:35.650Z,99827.31
2019-05-19T10:23:24.486Z,99827.36
2019-05-19T10:26:13.335Z,99818.42
2019-05-19T10:32:11.016Z,99817.98
2019-05-19T10:34:52.880Z,99818.32
2019-05-19T10:37:41.722Z,99821.21
2019-05-19T10:40:30.558Z,99820.61
2019-05-19T10:43:19.401Z,99830.37
2019-05-19T10:46:08.297Z,99811.71
2019-05-19T10:48:57.231Z,99818.41
2019-05-19T10:51:46.100Z,99809.13
2019-05-19T10:54:34.929Z,99812.92
2019-05-19T10:57:23.786Z,99818.50
2019-05-19T11:00:12.694Z,99817.01
2019-05-19T11:03:01.560Z,99818.22
2019-05-19T11:05:50.375Z,99820.14
2019-05-19T11:08:39.260Z,99813.20
2019-05-19T11:11:28.083Z,99807.72
2019-05-19T11:14:16.937Z,99798.66
2019-05-19T11:17:05.842Z,99804.09
2019-05-19T11:19:54.700Z,99794.98
2019-05-19T11:22:43.583Z,99790.97
2019-05-19T11:25:34.344Z,99794.97
2019-05-19T11:28:03.691Z,99791.67
2019-05-19T11:30:52.521Z,99795.05
2019-05-19T11:33:34.437Z,99788.09
2019-05-19T11:36:23.369Z,99777.45
2019-05-19T11:39:12.295Z,99777.25
2019-05-19T11:42:01.200Z,99783.20
2019-05-19T11:44:50.052Z,99778.54
2019-05-19T11:47:38.876Z,99776.36
2019-05-19T11:50:27.793Z,99774.36
2019-05-19T11:53:16.600Z,99775.19
2019-05-19T11:56:07.239Z,99774.92
2019-05-19T11:58:56.108Z,99782.38
2019-05-19T12:01:44.968Z,99782.02
2019-05-19T12:04:33.799Z,99780.56
2019-05-19T12:07:22.652Z,99780.30
2019-05-19T12:10:11.739Z,99789.72
2019-05-19T12:13:00.644Z,99784.76
2019-05-19T12:15:49.523Z,99781.04
2019-05-19T12:18:38.367Z,99777.47
2019-05-19T12:21:27.237Z,99772.74
2019-05-19T12:24:16.068Z,99771.54
2019-05-19T12:27:04.950Z,99772.39
2019-05-19T12:29:53.787Z,99773.70
2019-05-19T12:32:42.750Z,99776.97
2019-05-19T12:35:24.982Z,99772.88
2019-05-19T12:38:13.855Z,99781.41
2019-05-19T12:41:02.705Z,99767.09
2019-05-19T12:43:51.539Z,99771.08
2019-05-19T12:46:40.469Z,99769.17
2019-05-19T12:49:29.364Z,99771.73
2019-05-19T12:52:18.243Z,99771.27
2019-05-19T12:55:07.738Z,99767.94
2019-05-19T12:57:56.553Z,99771.37
2019-05-19T13:00:45.465Z,99764.79
2019-05-19T13:03:34.450Z,99773.92
2019-05-19T13:06:23.273Z,99769.16
2019-05-19T13:12:08.028Z,99777.24
2019-05-19T13:14:56.929Z,99783.69
2019-05-19T13:17:45.745Z,99781.00
2019-05-19T13:20:34.592Z,99781.84
2019-05-19T13:23:23.428Z,99788.70
2019-05-19T13:26:12.285Z,99783.45
2019-05-19T13:29:01.091Z,99787.50
2019-05-19T13:31:49.939Z,99810.39
2019-05-19T13:34:31.838Z,99824.30
2019-05-19T13:37:20.665Z,99824.59
2019-05-19T13:40:09.661Z,99824.53
2019-05-19T13:42:58.521Z,99819.78
2019-05-19T13:45:28.073Z,99840.28
2019-05-19T13:48:16.906Z,99849.28
2019-05-19T13:51:05.739Z,99840.20
2019-05-19T13:53:54.596Z,99834.22
2019-05-19T13:56:24.409Z,99834.02
2019-05-19T13:59:13.323Z,99834.70
2019-05-19T14:02:02.208Z,99836.42
2019-05-19T14:04:51.069Z,99826.89
2019-05-19T14:07:39.904Z,99822.84
2019-05-19T14:10:28.775Z,99813.73
2019-05-19T14:13:17.779Z,99813.06
2019-05-19T14:16:06.606Z,99814.97
2019-05-19T14:18:55.407Z,99814.61
2019-05-19T14:21:25.047Z,99818.64
2019-05-19T14:24:13.882Z,99819.11
2019-05-19T14:27:02.822Z,99830.06
2019-05-19T14:29:51.831Z,99837.75
2019-05-19T14:32:40.687Z,99837.18
2019-05-19T14:35:22.233Z,99834.89
2019-05-19T14:38:11.062Z,99851.57
2019-05-19T14:40:59.979Z,99884.82
2019-05-19T14:43:48.825Z,99904.98
2019-05-19T14:46:37.711Z,99914.40
2019-05-19T14:49:26.560Z,99912.52
2019-05-19T14:52:15.473Z,99902.59
2019-05-19T14:58:19.222Z,99899.13
2019-05-19T15:01:08.053Z,99902.12
2019-05-19T15:03:56.981Z,99905.17
2019-05-19T15:06:45.816Z,99902.58
2019-05-19T15:09:34.727Z,99891.94
2019-05-19T15:12:23.559Z,99890.33
2019-05-19T15:15:12.908Z,99889.88
2019-05-19T15:18:01.818Z,99889.22
2019-05-19T15:20:50.687Z,99886.12
2019-05-19T15:23:39.590Z,99876.98
2019-05-19T15:26:28.449Z,99877.95
2019-05-19T15:29:17.330Z,99865.23
2019-05-19T15:32:06.322Z,99860.44
2019-05-19T15:34:48.432Z,99848.31
2019-05-19T15:37:37.294Z,99846.18
2019-05-19T15:40:26.232Z,99845.44
2019-05-19T15:43:15.055Z,99840.15
2019-05-19T15:46:03.912Z,99838.95
2019-05-19T15:48:52.734Z,99826.62
2019-05-19T15:51:58.254Z,99824.74
2019-05-19T15:54:32.473Z,99817.53
2019-05-19T15:57:21.303Z,99806.25
2019-05-19T16:00:10.534Z,99803.58
2019-05-19T16:02:59.521Z,99792.54
2019-05-19T16:05:48.363Z,99788.50
2019-05-19T16:08:37.207Z,99779.04
2019-05-19T16:11:26.129Z,99783.33
2019-05-19T16:14:15.113Z,99780.52
2019-05-19T16:17:04.075Z,99773.01
2019-05-19T16:19:52.953Z,99774.59
2019-05-19T16:22:41.794Z,99774.20
2019-05-19T16:25:30.664Z,99766.98
2019-05-19T16:28:30.343Z,99760.31
2019-05-19T16:31:10.158Z,99758.86
2019-05-19T16:33:58.995Z,99763.13
2019-05-19T16:36:40.559Z,99777.81
2019-05-19T16:39:29.477Z,99775.42
2019-05-19T16:42:18.422Z,99783.01
2019-05-19T16:48:36.334Z,99777.18
2019-05-19T16:51:25.237Z,99781.70
2019-05-19T16:57:10.041Z,99786.84
2019-05-19T16:59:58.909Z,99782.30
2019-05-19T17:02:47.769Z,99785.38
2019-05-19T17:05:36.633Z,99777.73
2019-05-19T17:08:25.580Z,99775.29
2019-05-19T17:11:18.491Z,99777.00
2019-05-19T17:14:05.127Z,99774.48
2019-05-19T17:16:53.985Z,99778.52
2019-05-19T17:19:42.912Z,99785.15
2019-05-19T17:22:31.779Z,99786.44
2019-05-19T17:25:20.617Z,99779.52
2019-05-19T17:28:09.471Z,99783.80
2019-05-19T17:30:58.310Z,99778.80
2019-05-19T17:33:47.200Z,99773.75
2019-05-19T17:36:29.349Z,99769.55
2019-05-19T17:39:18.214Z,99776.59
2019-05-19T17:42:07.026Z,99777.34
2019-05-19T17:44:55.944Z,99782.47
2019-05-19T17:47:44.780Z,99778.82
2019-05-19T17:53:49.575Z,99782.36
2019-05-19T17:59:53.458Z,99793.80
2019-05-19T18:02:42.310Z,99794.52
2019-05-19T18:05:11.970Z,99801.63
2019-05-19T18:08:00.966Z,99791.62
2019-05-19T18:10:49.905Z,99800.84
2019-05-19T18:13:38.920Z,99800.84
2019-05-19T18:16:27.858Z,99805.74
2019-05-19T18:19:16.703Z,99796.40
2019-05-19T18:22:05.614Z,99797.90
2019-05-19T18:24:54.488Z,99805.89
2019-05-19T18:27:43.396Z,99807.26
2019-05-19T18:30:32.325Z,99804.59
2019-05-19T18:33:21.241Z,99807.20
2019-05-19T18:36:10.260Z,99808.16
2019-05-19T18:38:59.101Z,99807.72
2019-05-19T18:41:47.955Z,99813.45
2019-05-19T18:44:36.874Z,99816.52
2019-05-19T18:47:06.411Z,99814.08
2019-05-19T18:49:55.274Z,99820.26
2019-05-19T18:52:44.134Z,99821.08
2019-05-19T18:55:33.080Z,99816.30
2019-05-19T18:58:21.931Z,99818.55
2019-05-19T19:01:10.785Z,99817.25
2019-05-19T19:03:59.629Z,99820.72
2019-05-19T19:06:48.566Z,99827.38
2019-05-19T19:09:37.492Z,99825.52
2019-05-19T19:12:26.412Z,99834.94
2019-05-19T19:15:15.417Z,99838.62
2019-05-19T19:18:04.360Z,99840.75
2019-05-19T19:20:53.202Z,99842.99
2019-05-19T19:23:42.075Z,99844.55
2019-05-19T19:26:31.028Z,99856.63
2019-05-19T19:29:19.872Z,99855.06
2019-05-19T19:32:08.839Z,99860.36
2019-05-19T19:34:57.694Z,99868.95
2019-05-19T19:37:40.171Z,99874.30
2019-05-19T19:43:44.339Z,99885.69
2019-05-19T19:46:33.238Z,99891.91
2019-05-19T19:49:22.074Z,99888.36
2019-05-19T19:55:25.270Z,99895.25
2019-05-19T19:58:14.206Z,99887.45
2019-05-19T20:01:03.115Z,99892.85
2019-05-19T20:03:51.991Z,99898.55
2019-05-19T20:06:40.881Z,99903.55
2019-05-19T20:09:29.738Z,99910.08
2019-05-19T20:12:18.604Z,99904.22
2019-05-19T20:15:07.532Z,99910.44
2019-05-19T20:17:56.370Z,99920.83
2019-05-19T20:20:45.214Z,99935.61
2019-05-19T20:23:34.098Z,99945.50
2019-05-19T20:26:22.957Z,99952.33
2019-05-19T20:29:11.803Z,99955.06
2019-05-19T20:32:00.680Z,99961.80
2019-05-19T20:34:49.534Z,99954.63
2019-05-19T20:37:31.656Z,99949.16
2019-05-19T20:40:20.485Z,99945.00
2019-05-19T20:43:09.420Z,99939.63
2019-05-19T20:45:58.257Z,99938.12
2019-05-19T20:48:47.115Z,99939.59
2019-05-19T20:51:36.043Z,99931.91
2019-05-19T20:54:24.895Z,99923.31
2019-05-19T20:57:13.766Z,99923.44
2019-05-19T21:00:02.723Z,99923.56
2019-05-19T21:02:51.713Z,99920.11
2019-05-19T21:05:40.573Z,99915.77
2019-05-19T21:08:29.435Z,99919.30
2019-05-19T21:11:18.375Z,99914.95
2019-05-19T21:14:07.207Z,99912.80
2019-05-19T21:16:56.079Z,99916.69
2019-05-19T21:19:44.946Z,99918.45
2019-05-19T21:22:40.771Z,99910.17
2019-05-19T21:25:29.596Z,99908.48
2019-05-19T21:28:18.631Z,99904.21
2019-05-19T21:31:07.563Z,99904.59
2019-05-19T21:33:56.423Z,99900.67
2019-05-19T21:36:45.263Z,99899.88
2019-05-19T21:39:26.847Z,99896.81
2019-05-19T21:42:15.665Z,99898.52
2019-05-19T21:51:14.973Z,99905.87
2019-05-19T21:54:03.829Z,99899.48
2019-05-19T21:56:52.693Z,99898.30
2019-05-19T21:59:41.533Z,99904.44
2019-05-19T22:02:30.402Z,99908.39
2019-05-19T22:05:19.310Z,99904.96
2019-05-19T22:08:27.197Z,99904.11
2019-05-19T22:11:16.095Z,99901.13
2019-05-19T22:14:04.951Z,99890.73
2019-05-19T22:16:53.786Z,99896.83
2019-05-19T22:19:42.647Z,99897.73
2019-05-19T22:22:31.496Z,99895.55
2019-05-19T22:25:20.352Z,99895.57
2019-05-19T22:28:09.152Z,99898.63
2019-05-19T22:30:58.019Z,99899.09
2019-05-19T22:33:46.870Z,99899.55
2019-05-19T22:36:35.726Z,99886.92
2019-05-19T22:39:17.426Z,99889.11
2019-05-19T22:42:06.248Z,99882.56
2019-05-19T22:44:55.091Z,99884.73
2019-05-19T22:47:43.989Z,99883.47
2019-05-19T22:50:32.858Z,99888.70
2019-05-19T22:53:21.706Z,99887.37
2019-05-19T22:56:10.584Z,99883.91
2019-05-19T22:58:59.437Z,99883.45
2019-05-19T23:01:51.646Z,99871.81
2019-05-19T23:04:38.842Z,99868.83
2019-05-19T23:07:27.719Z,99866.25
2019-05-19T23:13:44.949Z,99869.23
2019-05-19T23:16:33.786Z,99861.92
2019-05-19T23:19:22.635Z,99861.90
2019-05-19T23:22:11.469Z,99865.35
2019-05-19T23:25:00.333Z,99866.69
2019-05-19T23:27:49.186Z,99874.03
2019-05-19T23:30:38.046Z,99867.56
2019-05-19T23:33:26.914Z,99859.31
2019-05-19T23:36:15.743Z,99860.65
2019-05-19T23:38:57.977Z,99860.19
2019-05-19T23:41:46.795Z,99864.13
2019-05-19T23:44:35.636Z,99867.17
2019-05-19T23:47:24.615Z,99866.31
2019-05-19T23:50:14.161Z,99860.24
2019-05-19T23:53:03.019Z,99861.14
2019-05-19T23:55:51.837Z,99858.95
2019-05-19T23:58:40.699Z,99862.00
